createdAt,value
2018-04-23T00:00:13.201Z,0
2018-04-23T00:01:12.936Z,0
2018-04-23T00:02:12.675Z,0
2018-04-23T00:03:13.189Z,0
2018-04-23T00:04:13.186Z,0
2018-04-23T00:05:12.926Z,0
2018-04-23T00:06:13.177Z,0
2018-04-23T00:07:12.931Z,0
2018-04-23T00:08:13.217Z,0
2018-04-23T00:09:12.921Z,0
2018-04-23T00:10:13.389Z,0
2018-04-23T00:11:13.379Z,0
2018-04-23T00:12:12.905Z,0
2018-04-23T00:13:12.899Z,0
2018-04-23T00:14:13.162Z,0
2018-04-23T00:15:13.153Z,0
2018-04-23T00:16:12.883Z,0
2018-04-23T00:17:12.895Z,0
2018-04-23T00:18:12.876Z,0
2018-04-23T00:19:12.618Z,0
2018-04-23T00:20:12.887Z,0
2018-04-23T00:21:12.866Z,0
2018-04-23T00:22:12.864Z,0
2018-04-23T00:23:12.959Z,0
2018-04-23T00:24:13.115Z,0
2018-04-23T00:25:12.600Z,0
2018-04-23T00:26:12.847Z,0
2018-04-23T00:27:13.107Z,0
2018-04-23T00:28:12.581Z,0
2018-04-23T00:29:12.799Z,0
2018-04-23T00:30:12.799Z,0
2018-04-23T00:31:12.835Z,0
2018-04-23T00:32:12.825Z,0
2018-04-23T00:33:12.565Z,0
2018-04-23T00:34:13.096Z,0
2018-04-23T00:35:13.069Z,0
2018-04-23T00:36:12.811Z,0
2018-04-23T00:37:12.804Z,0
2018-04-23T00:38:12.805Z,0
2018-04-23T00:39:12.799Z,0
2018-04-23T00:40:13.050Z,0
2018-04-23T00:41:12.785Z,0
2018-04-23T00:42:12.782Z,0
2018-04-23T00:43:12.523Z,0
2018-04-23T00:44:13.046Z,0
2018-04-23T00:45:13.047Z,0
2018-04-23T00:46:12.768Z,0
2018-04-23T00:47:12.765Z,0
2018-04-23T00:48:13.033Z,0
2018-04-23T00:49:13.018Z,0
2018-04-23T00:50:12.751Z,0
2018-04-23T00:51:12.766Z,0
2018-04-23T00:52:13.000Z,0
2018-04-23T00:53:12.751Z,0
2018-04-23T00:54:13.030Z,0
2018-04-23T00:55:12.469Z,0
2018-04-23T00:56:12.987Z,0
2018-04-23T00:57:12.993Z,0
2018-04-23T00:58:12.973Z,0
2018-04-23T00:59:12.975Z,0
2018-04-23T01:00:12.709Z,0
2018-04-23T01:01:12.454Z,0
2018-04-23T01:02:12.183Z,0
2018-04-23T01:03:12.699Z,0
2018-04-23T01:04:12.956Z,0
2018-04-23T01:05:12.688Z,0
2018-04-23T01:06:12.682Z,0
2018-04-23T01:07:12.950Z,0
2018-04-23T01:08:12.678Z,0
2018-04-23T01:09:12.937Z,0
2018-04-23T01:10:12.927Z,0
2018-04-23T01:11:12.400Z,0
2018-04-23T01:12:12.659Z,0
2018-04-23T01:13:12.931Z,0
2018-04-23T01:14:12.648Z,0
2018-04-23T01:15:12.899Z,0
2018-04-23T01:16:12.876Z,0
2018-04-23T01:17:12.632Z,0
2018-04-23T01:18:12.648Z,0
2018-04-23T01:19:12.882Z,0
2018-04-23T01:20:12.616Z,0
2018-04-23T01:21:12.368Z,0
2018-04-23T01:22:12.622Z,0
2018-04-23T01:23:12.607Z,0
2018-04-23T01:24:12.866Z,0
2018-04-23T01:25:12.343Z,0
2018-04-23T01:26:12.593Z,0
2018-04-23T01:27:12.612Z,0
2018-04-23T01:28:12.843Z,0
2018-04-23T01:29:12.837Z,0
2018-04-23T01:30:12.598Z,0
2018-04-23T01:31:12.826Z,0
2018-04-23T01:32:12.051Z,0
2018-04-23T01:33:12.820Z,0
2018-04-23T01:34:12.297Z,0
2018-04-23T01:35:12.036Z,0
2018-04-23T01:36:12.808Z,0
2018-04-23T01:37:12.846Z,0
2018-04-23T01:38:12.552Z,0
2018-04-23T01:39:12.793Z,0
2018-04-23T01:40:12.790Z,0
2018-04-23T01:41:12.781Z,0
2018-04-23T01:42:12.522Z,0
2018-04-23T01:43:12.256Z,0
2018-04-23T01:44:12.565Z,0
2018-04-23T01:45:12.515Z,0
2018-04-23T01:46:12.763Z,0
2018-04-23T01:47:12.787Z,0
2018-04-23T01:48:12.753Z,0
2018-04-23T01:49:12.492Z,0
2018-04-23T01:50:12.750Z,0
2018-04-23T01:51:12.481Z,0
2018-04-23T01:52:12.497Z,0
2018-04-23T01:53:12.733Z,0
2018-04-23T01:54:12.723Z,0
2018-04-23T01:55:12.725Z,0
2018-04-23T01:56:12.712Z,0
2018-04-23T01:57:12.450Z,0
2018-04-23T01:58:12.463Z,0
2018-04-23T01:59:12.504Z,0
2018-04-23T02:00:12.432Z,0
2018-04-23T02:01:12.684Z,0
2018-04-23T02:02:11.914Z,0
2018-04-23T02:03:12.696Z,0
2018-04-23T02:04:12.678Z,0
2018-04-23T02:05:12.657Z,0
2018-04-23T02:06:12.407Z,0
2018-04-23T02:07:12.405Z,0
2018-04-23T02:08:12.653Z,0
2018-04-23T02:09:12.391Z,0
2018-04-23T02:10:12.389Z,0
2018-04-23T02:11:12.656Z,0
2018-04-23T02:12:12.657Z,0
2018-04-23T02:13:12.371Z,0
2018-04-23T02:14:12.630Z,0
2018-04-23T02:15:11.846Z,0
2018-04-23T02:16:12.157Z,0
2018-04-23T02:17:12.352Z,0
2018-04-23T02:18:12.352Z,0
2018-04-23T02:19:12.599Z,0
2018-04-23T02:20:12.615Z,0
2018-04-23T02:21:12.074Z,0
2018-04-23T02:22:12.325Z,0
2018-04-23T02:23:12.301Z,0
2018-04-23T02:24:12.575Z,0
2018-04-23T02:25:12.572Z,0
2018-04-23T02:26:12.309Z,0
2018-04-23T02:27:12.562Z,0
2018-04-23T02:28:12.598Z,0
2018-04-23T02:29:12.554Z,0
2018-04-23T02:30:12.557Z,0
2018-04-23T02:31:12.286Z,0
2018-04-23T02:32:12.021Z,0
2018-04-23T02:33:12.020Z,0
2018-04-23T02:34:12.026Z,0
2018-04-23T02:35:12.540Z,0
2018-04-23T02:36:12.015Z,0
2018-04-23T02:37:12.256Z,0
2018-04-23T02:38:12.521Z,0
2018-04-23T02:39:12.290Z,0
2018-04-23T02:40:12.248Z,0
2018-04-23T02:41:12.241Z,0
2018-04-23T02:42:12.237Z,0
2018-04-23T02:43:12.493Z,0
2018-04-23T02:44:12.239Z,0
2018-04-23T02:45:12.220Z,0
2018-04-23T02:46:11.954Z,0
2018-04-23T02:47:11.946Z,0
2018-04-23T02:48:12.209Z,0
2018-04-23T02:49:12.431Z,0
2018-04-23T02:50:12.492Z,0
2018-04-23T02:51:12.459Z,0
2018-04-23T02:52:12.184Z,0
2018-04-23T02:53:12.184Z,0
2018-04-23T02:54:11.916Z,0
2018-04-23T02:55:12.188Z,0
2018-04-23T02:56:12.431Z,0
2018-04-23T02:57:12.447Z,0
2018-04-23T02:58:12.168Z,0
2018-04-23T02:59:12.146Z,0
2018-04-23T03:00:12.403Z,0
2018-04-23T03:01:11.881Z,0
2018-04-23T03:02:11.876Z,0
2018-04-23T03:03:12.147Z,0
2018-04-23T03:04:12.383Z,0
2018-04-23T03:05:11.881Z,0
2018-04-23T03:06:12.388Z,0
2018-04-23T03:07:11.853Z,0
2018-04-23T03:08:12.100Z,0
2018-04-23T03:09:11.858Z,0
2018-04-23T03:10:12.103Z,0
2018-04-23T03:11:12.090Z,0
2018-04-23T03:12:12.087Z,0
2018-04-23T03:13:11.824Z,0
2018-04-23T03:14:12.079Z,0
2018-04-23T03:15:12.089Z,0
2018-04-23T03:16:12.064Z,0
2018-04-23T03:17:12.374Z,0
2018-04-23T03:18:12.058Z,0
2018-04-23T03:19:12.048Z,0
2018-04-23T03:20:12.306Z,0
2018-04-23T03:21:12.035Z,0
2018-04-23T03:22:12.036Z,0
2018-04-23T03:23:12.024Z,0
2018-04-23T03:24:12.038Z,0
2018-04-23T03:25:11.761Z,0
2018-04-23T03:26:12.019Z,0
2018-04-23T03:27:12.021Z,0
2018-04-23T03:28:12.008Z,0
2018-04-23T03:29:11.999Z,0
2018-04-23T03:30:12.252Z,0
2018-04-23T03:31:12.261Z,4
2018-04-23T03:32:12.467Z,4
2018-04-23T03:33:11.976Z,0
2018-04-23T03:34:11.714Z,4
2018-04-23T03:35:11.971Z,4
2018-04-23T03:36:11.961Z,4
2018-04-23T03:37:12.388Z,4
2018-04-23T03:38:11.433Z,4
2018-04-23T03:39:11.948Z,8
2018-04-23T03:40:11.938Z,8
2018-04-23T03:41:11.952Z,12
2018-04-23T03:42:11.956Z,12
2018-04-23T03:43:12.181Z,16
2018-04-23T03:44:12.176Z,20
2018-04-23T03:45:11.655Z,20
2018-04-23T03:46:12.168Z,24
2018-04-23T03:47:12.161Z,28
2018-04-23T03:48:11.896Z,32
2018-04-23T03:49:11.918Z,36
2018-04-23T03:50:12.148Z,40
2018-04-23T03:51:12.138Z,44
2018-04-23T03:52:11.625Z,52
2018-04-23T03:53:12.135Z,60
2018-04-23T03:54:11.619Z,64
2018-04-23T03:55:12.133Z,72
2018-04-23T03:56:12.123Z,80
2018-04-23T03:57:11.879Z,88
2018-04-23T03:58:11.588Z,100
2018-04-23T03:59:11.845Z,104
2018-04-23T04:00:12.094Z,116
2018-04-23T04:01:12.089Z,124
2018-04-23T04:02:11.831Z,136
2018-04-23T04:03:12.081Z,148
2018-04-23T04:04:12.034Z,156
2018-04-23T04:05:11.806Z,168
2018-04-23T04:06:11.558Z,188
2018-04-23T04:07:12.054Z,208
2018-04-23T04:08:11.808Z,228
2018-04-23T04:09:11.533Z,248
2018-04-23T04:10:11.527Z,276
2018-04-23T04:11:12.039Z,304
2018-04-23T04:12:12.255Z,332
2018-04-23T04:13:11.506Z,364
2018-04-23T04:14:11.760Z,392
2018-04-23T04:15:11.755Z,420
2018-04-23T04:16:12.211Z,456
2018-04-23T04:17:11.765Z,492
2018-04-23T04:18:11.482Z,520
2018-04-23T04:19:12.002Z,552
2018-04-23T04:20:11.470Z,584
2018-04-23T04:21:11.988Z,612
2018-04-23T04:22:12.198Z,648
2018-04-23T04:23:11.606Z,680
2018-04-23T04:24:11.706Z,712
2018-04-23T04:25:11.443Z,748
2018-04-23T04:26:11.440Z,784
2018-04-23T04:27:11.995Z,812
2018-04-23T04:28:11.942Z,840
2018-04-23T04:29:11.941Z,876
2018-04-23T04:30:11.691Z,904
2018-04-23T04:31:11.950Z,936
2018-04-23T04:32:11.671Z,968
2018-04-23T04:33:11.656Z,1004
2018-04-23T04:34:11.397Z,1040
2018-04-23T04:35:11.391Z,1084
2018-04-23T04:36:11.898Z,1124
2018-04-23T04:37:11.638Z,1168
2018-04-23T04:38:11.641Z,1216
2018-04-23T04:39:11.890Z,1264
2018-04-23T04:40:11.881Z,1312
2018-04-23T04:41:11.836Z,1352
2018-04-23T04:42:11.882Z,1400
2018-04-23T04:43:11.352Z,1456
2018-04-23T04:44:11.862Z,1524
2018-04-23T04:45:11.597Z,1600
2018-04-23T04:46:11.593Z,1664
2018-04-23T04:47:11.784Z,1708
2018-04-23T04:48:11.580Z,1728
2018-04-23T04:49:11.592Z,1732
2018-04-23T04:50:11.824Z,1756
2018-04-23T04:51:11.305Z,1820
2018-04-23T04:52:11.299Z,1920
2018-04-23T04:53:11.813Z,2032
2018-04-23T04:54:11.550Z,2124
2018-04-23T04:55:11.801Z,2200
2018-04-23T04:56:12.034Z,2268
2018-04-23T04:57:11.554Z,2312
2018-04-23T04:58:11.787Z,2332
2018-04-23T04:59:11.941Z,2340
2018-04-23T05:00:11.520Z,2376
2018-04-23T05:01:11.785Z,2444
2018-04-23T05:02:11.531Z,2508
2018-04-23T05:03:11.759Z,2556
2018-04-23T05:04:11.759Z,2600
2018-04-23T05:05:11.238Z,2648
2018-04-23T05:06:11.749Z,2700
2018-04-23T05:07:11.243Z,2752
2018-04-23T05:08:11.738Z,2792
2018-04-23T05:09:11.482Z,2840
2018-04-23T05:10:11.731Z,2900
2018-04-23T05:11:11.741Z,2960
2018-04-23T05:12:11.461Z,3048
2018-04-23T05:13:10.984Z,3156
2018-04-23T05:14:11.698Z,3272
2018-04-23T05:15:11.578Z,3372
2018-04-23T05:16:11.252Z,3488
2018-04-23T05:17:12.004Z,3596
2018-04-23T05:18:11.917Z,3728
2018-04-23T05:19:11.277Z,3904
2018-04-23T05:20:11.424Z,4036
2018-04-23T05:21:11.489Z,4056
2018-04-23T05:22:11.267Z,3952
2018-04-23T05:23:11.504Z,3856
2018-04-23T05:24:11.403Z,3836
2018-04-23T05:25:11.488Z,3856
2018-04-23T05:26:11.143Z,3868
2018-04-23T05:27:11.139Z,3868
2018-04-23T05:28:11.141Z,3760
2018-04-23T05:29:11.707Z,3552
2018-04-23T05:30:11.760Z,3384
2018-04-23T05:31:11.373Z,3328
2018-04-23T05:32:11.192Z,3328
2018-04-23T05:33:11.632Z,3344
2018-04-23T05:34:11.465Z,3320
2018-04-23T05:35:11.617Z,3244
2018-04-23T05:36:11.351Z,3176
2018-04-23T05:37:11.664Z,3140
2018-04-23T05:38:11.139Z,3148
2018-04-23T05:39:11.388Z,3184
2018-04-23T05:40:11.594Z,3280
2018-04-23T05:41:11.629Z,3456
2018-04-23T05:42:11.336Z,3744
2018-04-23T05:43:11.457Z,4096
2018-04-23T05:44:11.511Z,4460
2018-04-23T05:45:11.320Z,4712
2018-04-23T05:46:11.316Z,4912
2018-04-23T05:47:11.585Z,5212
2018-04-23T05:48:11.040Z,5544
2018-04-23T05:49:11.297Z,5852
2018-04-23T05:50:11.304Z,6120
2018-04-23T05:51:11.549Z,6304
2018-04-23T05:52:11.302Z,6436
2018-04-23T05:53:11.289Z,6416
2018-04-23T05:54:11.540Z,6372
2018-04-23T05:55:11.605Z,6484
2018-04-23T05:56:12.506Z,6768
2018-04-23T05:57:11.549Z,7068
2018-04-23T05:58:11.005Z,7192
2018-04-23T05:59:11.518Z,7352
2018-04-23T06:00:11.487Z,7616
2018-04-23T06:01:10.993Z,7844
2018-04-23T06:02:11.525Z,8076
2018-04-23T06:03:11.414Z,8172
2018-04-23T06:04:11.238Z,7924
2018-04-23T06:05:11.253Z,7504
2018-04-23T06:06:11.494Z,7248
2018-04-23T06:07:11.249Z,7332
2018-04-23T06:08:10.968Z,7464
2018-04-23T06:09:11.226Z,7520
2018-04-23T06:10:11.218Z,7416
2018-04-23T06:11:11.222Z,7196
2018-04-23T06:12:10.959Z,6944
2018-04-23T06:13:11.205Z,6816
2018-04-23T06:14:11.208Z,6844
2018-04-23T06:15:11.484Z,6860
2018-04-23T06:16:11.203Z,6788
2018-04-23T06:17:11.676Z,6836
2018-04-23T06:18:11.447Z,7120
2018-04-23T06:19:11.188Z,7552
2018-04-23T06:20:11.448Z,7996
2018-04-23T06:21:11.187Z,8604
2018-04-23T06:22:11.451Z,9244
2018-04-23T06:23:11.174Z,9448
2018-04-23T06:24:11.433Z,9432
2018-04-23T06:25:11.228Z,9284
2018-04-23T06:26:11.463Z,9032
2018-04-23T06:27:11.167Z,8728
2018-04-23T06:28:11.484Z,8408
2018-04-23T06:29:11.415Z,8236
2018-04-23T06:30:11.421Z,8028
2018-04-23T06:31:11.231Z,7884
2018-04-23T06:32:11.410Z,7972
2018-04-23T06:33:10.631Z,8180
2018-04-23T06:34:11.176Z,8228
2018-04-23T06:35:11.142Z,7996
2018-04-23T06:36:10.898Z,7476
2018-04-23T06:37:11.397Z,7276
2018-04-23T06:38:11.393Z,7348
2018-04-23T06:39:11.143Z,7456
2018-04-23T06:40:11.390Z,7132
2018-04-23T06:41:11.148Z,6932
2018-04-23T06:42:11.127Z,6872
2018-04-23T06:43:11.139Z,6940
2018-04-23T06:44:11.440Z,7780
2018-04-23T06:45:11.388Z,8820
2018-04-23T06:46:10.971Z,8896
2018-04-23T06:47:11.376Z,8964
2018-04-23T06:48:11.109Z,9752
2018-04-23T06:49:10.851Z,10000
2018-04-23T06:50:11.106Z,13096
2018-04-23T06:51:11.366Z,11872
2018-04-23T06:52:11.065Z,14400
2018-04-23T06:53:11.354Z,17184
2018-04-23T06:54:11.352Z,14816
2018-04-23T06:55:11.373Z,15112
2018-04-23T06:56:11.354Z,15240
2018-04-23T06:57:11.579Z,16128
2018-04-23T06:58:11.106Z,17408
2018-04-23T06:59:11.191Z,15384
2018-04-23T07:00:10.829Z,17312
2018-04-23T07:01:11.091Z,18336
2018-04-23T07:02:11.342Z,16128
2018-04-23T07:03:11.079Z,12412
2018-04-23T07:04:11.351Z,14244
2018-04-23T07:05:11.356Z,13816
2018-04-23T07:06:11.360Z,15392
2018-04-23T07:07:10.821Z,13724
2018-04-23T07:08:11.305Z,12988
2018-04-23T07:09:11.334Z,19712
2018-04-23T07:10:11.121Z,15056
2018-04-23T07:11:11.213Z,22464
2018-04-23T07:12:11.327Z,17792
2018-04-23T07:13:11.088Z,11672
2018-04-23T07:14:11.120Z,10328
2018-04-23T07:15:11.349Z,10424
2018-04-23T07:16:11.070Z,10008
2018-04-23T07:17:11.069Z,10328
2018-04-23T07:18:11.280Z,9392
2018-04-23T07:19:10.849Z,8684
2018-04-23T07:20:10.833Z,8476
2018-04-23T07:21:11.337Z,8536
2018-04-23T07:22:11.075Z,8316
2018-04-23T07:23:11.320Z,8332
2018-04-23T07:24:10.864Z,8440
2018-04-23T07:25:11.155Z,8320
2018-04-23T07:26:11.063Z,8156
2018-04-23T07:27:11.066Z,8028
2018-04-23T07:28:11.132Z,8156
2018-04-23T07:29:11.327Z,8444
2018-04-23T07:30:11.325Z,8988
2018-04-23T07:31:10.808Z,9140
2018-04-23T07:32:11.284Z,9232
2018-04-23T07:33:11.540Z,8776
2018-04-23T07:34:11.321Z,7992
2018-04-23T07:35:10.801Z,8064
2018-04-23T07:36:11.126Z,8340
2018-04-23T07:37:11.368Z,8432
2018-04-23T07:38:11.319Z,8436
2018-04-23T07:39:11.347Z,8760
2018-04-23T07:40:10.805Z,8952
2018-04-23T07:41:11.061Z,8976
2018-04-23T07:42:11.328Z,9180
2018-04-23T07:43:11.071Z,9144
2018-04-23T07:44:11.329Z,8956
2018-04-23T07:45:11.333Z,8744
2018-04-23T07:46:11.070Z,8524
2018-04-23T07:47:11.068Z,8700
2018-04-23T07:48:11.031Z,8572
2018-04-23T07:49:11.064Z,8392
2018-04-23T07:50:11.330Z,8372
2018-04-23T07:51:11.317Z,8436
2018-04-23T07:52:11.321Z,8232
2018-04-23T07:53:11.324Z,8052
2018-04-23T07:54:11.205Z,7980
2018-04-23T07:55:11.069Z,8176
2018-04-23T07:56:11.058Z,8172
2018-04-23T07:57:11.316Z,8188
2018-04-23T07:58:11.314Z,8284
2018-04-23T07:59:11.313Z,8628
2018-04-23T08:00:11.067Z,8660
2018-04-23T08:01:11.063Z,8708
2018-04-23T08:02:11.060Z,8712
2018-04-23T08:03:10.802Z,8440
2018-04-23T08:04:10.814Z,8336
2018-04-23T08:05:10.541Z,7944
2018-04-23T08:06:11.066Z,7584
2018-04-23T08:07:11.056Z,7564
2018-04-23T08:08:11.319Z,7392
2018-04-23T08:09:11.078Z,7548
2018-04-23T08:10:10.804Z,7912
2018-04-23T08:11:11.339Z,8392
2018-04-23T08:12:11.338Z,8360
2018-04-23T08:13:11.372Z,8572
2018-04-23T08:14:11.333Z,8804
2018-04-23T08:15:11.065Z,9432
2018-04-23T08:16:11.061Z,10504
2018-04-23T08:17:10.801Z,11628
2018-04-23T08:18:11.354Z,11964
2018-04-23T08:19:11.322Z,11624
2018-04-23T08:20:11.064Z,11324
2018-04-23T08:21:10.801Z,11448
2018-04-23T08:22:11.320Z,11956
2018-04-23T08:23:11.319Z,11952
2018-04-23T08:24:10.807Z,11280
2018-04-23T08:25:11.062Z,10392
2018-04-23T08:26:11.077Z,9820
2018-04-23T08:27:11.066Z,9744
2018-04-23T08:28:11.324Z,9812
2018-04-23T08:29:11.067Z,10324
2018-04-23T08:30:11.063Z,10716
2018-04-23T08:31:11.326Z,11204
2018-04-23T08:32:10.809Z,11236
2018-04-23T08:33:10.858Z,11636
2018-04-23T08:34:11.328Z,12540
2018-04-23T08:35:11.549Z,13888
2018-04-23T08:36:11.350Z,15096
2018-04-23T08:37:11.352Z,15552
2018-04-23T08:38:10.815Z,14912
2018-04-23T08:39:11.075Z,14148
2018-04-23T08:40:11.092Z,13032
2018-04-23T08:41:11.085Z,12996
2018-04-23T08:42:11.082Z,11804
2018-04-23T08:43:10.825Z,10388
2018-04-23T08:44:11.081Z,10484
2018-04-23T08:45:11.634Z,11452
2018-04-23T08:46:11.365Z,12648
2018-04-23T08:47:11.090Z,11980
2018-04-23T08:48:11.211Z,10896
2018-04-23T08:49:11.088Z,11252
2018-04-23T08:50:11.351Z,11392
2018-04-23T08:51:11.118Z,12236
2018-04-23T08:52:11.098Z,11812
2018-04-23T08:53:11.121Z,11368
2018-04-23T08:54:11.119Z,10948
2018-04-23T08:55:11.388Z,10908
2018-04-23T08:56:11.116Z,11700
2018-04-23T08:57:11.103Z,11784
2018-04-23T08:58:10.855Z,11532
2018-04-23T08:59:11.365Z,11340
2018-04-23T09:00:11.120Z,10804
2018-04-23T09:01:11.043Z,11012
2018-04-23T09:02:11.108Z,10808
2018-04-23T09:03:11.113Z,10748
2018-04-23T09:04:11.119Z,11584
2018-04-23T09:05:11.407Z,13184
2018-04-23T09:06:11.140Z,13488
2018-04-23T09:07:11.318Z,13604
2018-04-23T09:08:11.379Z,12916
2018-04-23T09:09:11.124Z,12636
2018-04-23T09:10:11.120Z,12576
2018-04-23T09:11:10.878Z,12856
2018-04-23T09:12:11.400Z,12772
2018-04-23T09:13:11.418Z,11900
2018-04-23T09:14:11.377Z,12648
2018-04-23T09:15:11.384Z,12764
2018-04-23T09:16:11.125Z,12112
2018-04-23T09:17:11.129Z,11344
2018-04-23T09:18:11.390Z,10652
2018-04-23T09:19:11.386Z,10420
2018-04-23T09:20:11.130Z,10092
2018-04-23T09:21:11.142Z,10104
2018-04-23T09:22:10.874Z,10196
2018-04-23T09:23:11.135Z,10228
2018-04-23T09:24:11.410Z,10148
2018-04-23T09:25:11.610Z,10156
2018-04-23T09:26:11.145Z,10364
2018-04-23T09:27:11.146Z,9768
2018-04-23T09:28:11.356Z,10052
2018-04-23T09:29:11.153Z,10840
2018-04-23T09:30:11.409Z,11444
2018-04-23T09:31:11.153Z,12524
2018-04-23T09:32:11.167Z,12672
2018-04-23T09:33:11.414Z,12652
2018-04-23T09:34:11.155Z,11532
2018-04-23T09:35:11.166Z,10580
2018-04-23T09:36:11.415Z,10520
2018-04-23T09:37:11.432Z,10800
2018-04-23T09:38:11.161Z,11380
2018-04-23T09:39:11.412Z,12648
2018-04-23T09:40:10.900Z,13772
2018-04-23T09:41:11.425Z,15324
2018-04-23T09:42:11.420Z,16928
2018-04-23T09:43:11.420Z,17760
2018-04-23T09:44:10.930Z,17952
2018-04-23T09:45:11.427Z,17664
2018-04-23T09:46:11.166Z,17792
2018-04-23T09:47:11.177Z,17152
2018-04-23T09:48:11.436Z,16064
2018-04-23T09:49:11.444Z,15928
2018-04-23T09:50:11.715Z,16188
2018-04-23T09:51:11.216Z,15812
2018-04-23T09:52:11.435Z,14768
2018-04-23T09:53:10.924Z,14084
2018-04-23T09:54:11.441Z,13532
2018-04-23T09:55:10.925Z,13196
2018-04-23T09:56:11.186Z,12324
2018-04-23T09:57:11.189Z,11396
2018-04-23T09:58:11.187Z,10380
2018-04-23T09:59:11.455Z,8964
2018-04-23T10:00:11.455Z,7760
2018-04-23T10:01:10.676Z,6772
2018-04-23T10:02:11.235Z,5680
2018-04-23T10:03:10.940Z,4708
2018-04-23T10:04:11.201Z,3564
2018-04-23T10:05:11.458Z,2832
2018-04-23T10:06:11.035Z,2492
2018-04-23T10:07:11.462Z,2848
2018-04-23T10:08:10.957Z,3740
2018-04-23T10:09:11.206Z,4444
2018-04-23T10:10:10.951Z,5032
2018-04-23T10:11:11.209Z,4948
2018-04-23T10:12:11.632Z,4708
2018-04-23T10:13:11.464Z,4088
2018-04-23T10:14:11.467Z,3384
2018-04-23T10:15:11.208Z,2944
2018-04-23T10:16:11.482Z,2084
2018-04-23T10:17:11.226Z,1488
2018-04-23T10:18:11.471Z,1448
2018-04-23T10:19:10.951Z,1796
2018-04-23T10:20:11.468Z,2160
2018-04-23T10:21:11.552Z,2688
2018-04-23T10:22:11.214Z,3004
2018-04-23T10:23:11.465Z,2604
2018-04-23T10:24:11.461Z,2048
2018-04-23T10:25:10.946Z,1828
2018-04-23T10:26:10.945Z,1924
2018-04-23T10:27:11.457Z,2356
2018-04-23T10:28:11.198Z,2932
2018-04-23T10:29:11.199Z,3028
2018-04-23T10:30:11.200Z,3032
2018-04-23T10:31:11.879Z,2908
2018-04-23T10:32:11.186Z,2900
2018-04-23T10:33:11.180Z,3860
2018-04-23T10:34:11.182Z,5008
2018-04-23T10:35:10.916Z,5568
2018-04-23T10:36:11.175Z,5976
2018-04-23T10:37:11.167Z,6444
2018-04-23T10:38:11.419Z,6756
2018-04-23T10:39:11.158Z,7152
2018-04-23T10:40:11.153Z,7612
2018-04-23T10:41:11.154Z,8176
2018-04-23T10:42:11.424Z,8488
2018-04-23T10:43:11.620Z,8224
2018-04-23T10:44:11.141Z,7708
2018-04-23T10:45:11.136Z,7184
2018-04-23T10:46:11.384Z,6808
2018-04-23T10:47:11.385Z,6664
2018-04-23T10:48:11.377Z,6584
2018-04-23T10:49:11.379Z,6560
2018-04-23T10:50:11.116Z,6580
2018-04-23T10:51:10.589Z,6576
2018-04-23T10:52:10.844Z,6608
2018-04-23T10:53:11.094Z,6684
2018-04-23T10:54:11.091Z,6808
2018-04-23T10:55:11.092Z,6940
2018-04-23T10:56:10.567Z,7096
2018-04-23T10:57:11.096Z,7232
2018-04-23T10:58:11.361Z,7372
2018-04-23T10:59:11.071Z,7532
2018-04-23T11:00:11.070Z,7856
2018-04-23T11:01:10.825Z,8144
2018-04-23T11:02:11.061Z,8044
2018-04-23T11:03:11.312Z,7624
2018-04-23T11:04:10.796Z,7388
2018-04-23T11:05:11.307Z,7364
2018-04-23T11:06:11.043Z,7804
2018-04-23T11:07:11.039Z,8772
2018-04-23T11:08:10.792Z,8776
2018-04-23T11:09:10.780Z,8240
2018-04-23T11:10:10.836Z,7788
2018-04-23T11:11:11.025Z,7552
2018-04-23T11:12:11.279Z,7352
2018-04-23T11:13:11.015Z,7240
2018-04-23T11:14:11.008Z,6852
2018-04-23T11:15:10.748Z,6336
2018-04-23T11:16:10.999Z,5836
2018-04-23T11:17:10.746Z,5500
2018-04-23T11:18:10.736Z,5328
2018-04-23T11:19:10.988Z,5112
2018-04-23T11:20:10.992Z,4868
2018-04-23T11:21:10.598Z,4736
2018-04-23T11:22:10.730Z,4764
2018-04-23T11:23:10.720Z,5040
2018-04-23T11:24:10.727Z,5464
2018-04-23T11:25:10.980Z,5960
2018-04-23T11:26:11.238Z,6448
2018-04-23T11:27:10.960Z,7096
2018-04-23T11:28:11.220Z,8184
2018-04-23T11:29:10.959Z,9436
2018-04-23T11:30:11.210Z,10440
2018-04-23T11:31:10.698Z,10796
2018-04-23T11:32:10.701Z,10416
2018-04-23T11:33:10.943Z,10020
2018-04-23T11:34:11.214Z,9772
2018-04-23T11:35:11.196Z,9528
2018-04-23T11:36:11.168Z,9260
2018-04-23T11:37:10.674Z,9412
2018-04-23T11:38:10.669Z,10020
2018-04-23T11:39:10.928Z,10248
2018-04-23T11:40:10.921Z,10312
2018-04-23T11:41:11.184Z,10404
2018-04-23T11:42:10.911Z,10576
2018-04-23T11:43:10.923Z,11252
2018-04-23T11:44:11.166Z,12288
2018-04-23T11:45:11.332Z,13132
2018-04-23T11:46:10.899Z,13880
2018-04-23T11:47:11.227Z,14024
2018-04-23T11:48:11.159Z,13616
2018-04-23T11:49:10.633Z,12924
2018-04-23T11:50:10.896Z,12600
2018-04-23T11:51:10.891Z,12912
2018-04-23T11:52:10.892Z,13416
2018-04-23T11:53:10.739Z,13864
2018-04-23T11:54:10.885Z,14172
2018-04-23T11:55:10.882Z,14216
2018-04-23T11:56:11.136Z,13952
2018-04-23T11:57:10.871Z,13468
2018-04-23T11:58:10.870Z,13048
2018-04-23T11:59:10.674Z,12888
2018-04-23T12:00:11.157Z,12912
2018-04-23T12:01:11.177Z,13016
2018-04-23T12:02:11.118Z,13080
2018-04-23T12:03:10.860Z,13084
2018-04-23T12:04:10.858Z,13100
2018-04-23T12:05:11.123Z,13124
2018-04-23T12:06:10.593Z,13128
2018-04-23T12:07:11.130Z,13044
2018-04-23T12:08:10.850Z,12852
2018-04-23T12:09:11.326Z,12532
2018-04-23T12:10:10.331Z,12160
2018-04-23T12:11:11.127Z,11780
2018-04-23T12:12:10.842Z,11500
2018-04-23T12:13:10.839Z,11288
2018-04-23T12:14:10.323Z,11136
2018-04-23T12:15:10.839Z,11032
2018-04-23T12:16:11.255Z,10964
2018-04-23T12:17:10.836Z,10912
2018-04-23T12:18:11.096Z,10840
2018-04-23T12:19:10.844Z,10728
2018-04-23T12:20:10.574Z,10688
2018-04-23T12:21:10.836Z,10784
2018-04-23T12:22:11.157Z,11088
2018-04-23T12:23:10.824Z,11568
2018-04-23T12:24:10.304Z,12068
2018-04-23T12:25:11.079Z,12472
2018-04-23T12:26:11.078Z,12700
2018-04-23T12:27:10.818Z,12716
2018-04-23T12:28:10.821Z,12584
2018-04-23T12:29:10.829Z,12380
2018-04-23T12:30:10.295Z,12268
2018-04-23T12:31:10.814Z,12288
2018-04-23T12:32:10.551Z,12456
2018-04-23T12:33:10.814Z,12832
2018-04-23T12:34:11.063Z,13312
2018-04-23T12:35:10.800Z,13656
2018-04-23T12:36:10.802Z,13776
2018-04-23T12:37:11.279Z,13748
2018-04-23T12:38:10.808Z,13728
2018-04-23T12:39:10.541Z,13784
2018-04-23T12:40:10.540Z,13836
2018-04-23T12:41:10.801Z,13976
2018-04-23T12:42:10.793Z,13852
2018-04-23T12:43:11.059Z,13656
2018-04-23T12:44:10.273Z,13576
2018-04-23T12:45:10.794Z,13528
2018-04-23T12:46:10.699Z,13392
2018-04-23T12:47:11.047Z,13132
2018-04-23T12:48:10.548Z,13028
2018-04-23T12:49:10.786Z,12988
2018-04-23T12:50:10.529Z,12848
2018-04-23T12:51:10.527Z,12524
2018-04-23T12:52:10.787Z,12236
2018-04-23T12:53:10.267Z,11964
2018-04-23T12:54:11.043Z,11568
2018-04-23T12:55:10.815Z,11412
2018-04-23T12:56:11.668Z,10624
2018-04-23T12:57:11.037Z,9756
2018-04-23T12:58:11.055Z,9168
2018-04-23T12:59:10.519Z,8740
2018-04-23T13:00:10.777Z,8600
2018-04-23T13:01:10.518Z,8872
2018-04-23T13:02:11.039Z,9408
2018-04-23T13:03:10.776Z,10024
2018-04-23T13:04:10.772Z,10712
2018-04-23T13:05:11.042Z,11416
2018-04-23T13:06:10.256Z,11600
2018-04-23T13:07:11.032Z,11224
2018-04-23T13:08:10.776Z,12012
2018-04-23T13:09:11.030Z,12264
2018-04-23T13:10:11.000Z,12192
2018-04-23T13:11:10.772Z,12104
2018-04-23T13:12:10.516Z,11952
2018-04-23T13:13:11.041Z,11840
2018-04-23T13:14:10.763Z,11752
2018-04-23T13:15:10.511Z,11672
2018-04-23T13:16:11.018Z,11680
2018-04-23T13:17:10.504Z,11676
2018-04-23T13:18:10.504Z,11692
2018-04-23T13:19:10.761Z,11736
2018-04-23T13:20:11.031Z,11548
2018-04-23T13:21:10.762Z,11204
2018-04-23T13:22:11.021Z,10944
2018-04-23T13:23:10.753Z,10444
2018-04-23T13:24:10.772Z,10148
2018-04-23T13:25:10.756Z,9828
2018-04-23T13:26:10.757Z,9660
2018-04-23T13:27:10.756Z,8940
2018-04-23T13:28:10.754Z,8644
2018-04-23T13:29:10.749Z,8372
2018-04-23T13:30:11.010Z,8144
2018-04-23T13:31:10.769Z,7928
2018-04-23T13:32:10.493Z,7640
2018-04-23T13:33:10.759Z,7476
2018-04-23T13:34:10.745Z,6992
2018-04-23T13:35:10.744Z,6744